createdAt,value
2022-12-25T00:02:14.837Z,2.20
2022-12-25T00:07:16.547Z,2.22
2022-12-25T00:12:19.291Z,2.53
2022-12-25T00:17:21.006Z,7.85
2022-12-25T00:22:22.859Z,4.70
2022-12-25T00:27:24.526Z,5.40
2022-12-25T00:32:26.244Z,10.05
2022-12-25T00:37:27.918Z,9.20
2022-12-25T00:42:29.677Z,7.97
2022-12-25T00:47:31.586Z,4.25
2022-12-25T00:52:33.306Z,4.97
2022-12-25T00:57:35.191Z,4.88
2022-12-25T01:02:37.401Z,3.25
2022-12-25T01:07:39.246Z,2.70
2022-12-25T01:12:42.721Z,3.25
2022-12-25T01:17:44.870Z,6.35
2022-12-25T01:22:47.328Z,8.68
2022-12-25T01:27:49.040Z,7.22
2022-12-25T01:32:50.723Z,8.82
2022-12-25T01:37:53.172Z,7.53
2022-12-25T01:42:54.869Z,5.00
2022-12-25T01:47:56.716Z,6.00
2022-12-25T01:52:58.605Z,3.65
2022-12-25T01:58:00.565Z,3.58
2022-12-25T02:03:02.328Z,4.15
2022-12-25T02:08:11.085Z,4.20
2022-12-25T02:13:19.227Z,4.15
2022-12-25T02:18:43.764Z,5.10
2022-12-25T02:24:09.689Z,2.88
2022-12-25T02:29:23.147Z,3.38
2022-12-25T02:34:46.915Z,3.28
2022-12-25T02:40:00.725Z,4.22
2022-12-25T02:45:21.164Z,3.15
2022-12-25T02:50:43.714Z,3.35
2022-12-25T02:56:07.191Z,3.67
2022-12-25T03:01:33.986Z,4.57
2022-12-25T03:06:42.888Z,3.72
2022-12-25T03:11:50.554Z,4.45
2022-12-25T03:16:56.428Z,4.65
2022-12-25T03:22:17.053Z,3.80
2022-12-25T03:27:18.941Z,3.30
2022-12-25T03:32:37.419Z,2.70
2022-12-25T03:38:47.731Z,2.35
2022-12-25T03:44:28.213Z,1.77
2022-12-25T03:49:57.817Z,2.35
2022-12-25T03:55:23.015Z,2.20
2022-12-25T04:00:43.299Z,3.67
2022-12-25T04:06:11.166Z,3.00
2022-12-25T04:11:31.273Z,2.22
2022-12-25T04:16:51.514Z,1.08
2022-12-25T04:22:11.862Z,3.17
2022-12-25T04:27:32.365Z,1.63
2022-12-25T04:32:52.479Z,3.97
2022-12-25T04:37:54.250Z,1.85
2022-12-25T04:42:55.967Z,1.10
2022-12-25T04:48:00.347Z,1.50
2022-12-25T04:53:02.053Z,3.15
2022-12-25T04:58:04.215Z,3.95
2022-12-25T05:03:06.000Z,4.90
2022-12-25T05:08:07.844Z,3.30
2022-12-25T05:13:09.598Z,1.10
2022-12-25T05:18:11.462Z,0.95
2022-12-25T05:23:13.208Z,1.00
2022-12-25T05:28:15.033Z,0.88
2022-12-25T05:33:16.762Z,1.30
2022-12-25T05:38:18.446Z,2.83
2022-12-25T05:43:20.266Z,1.13
2022-12-25T05:48:22.243Z,4.38
2022-12-25T05:53:23.954Z,2.03
2022-12-25T05:58:25.633Z,2.88
2022-12-25T06:03:28.008Z,2.58
2022-12-25T06:08:29.797Z,2.92
2022-12-25T06:13:32.835Z,2.80
2022-12-25T06:18:38.909Z,2.80
2022-12-25T06:23:41.123Z,2.13
2022-12-25T06:28:43.388Z,2.63
2022-12-25T06:33:45.402Z,2.55
2022-12-25T06:38:47.576Z,6.10
2022-12-25T06:43:53.750Z,10.77
2022-12-25T06:48:56.869Z,15.77
2022-12-25T06:54:03.060Z,17.92
2022-12-25T06:59:07.705Z,9.98
2022-12-25T07:04:40.962Z,4.68
2022-12-25T07:09:42.760Z,2.78
2022-12-25T07:14:48.599Z,2.88
2022-12-25T07:19:50.689Z,3.60
2022-12-25T07:24:52.395Z,6.53
2022-12-25T07:29:54.025Z,14.30
2022-12-25T07:34:55.742Z,14.23
2022-12-25T07:39:57.552Z,13.77
2022-12-25T07:44:59.264Z,9.98
2022-12-25T07:50:00.975Z,9.75
2022-12-25T07:55:02.706Z,8.13
2022-12-25T08:00:05.825Z,6.20
2022-12-25T08:05:08.143Z,7.07
2022-12-25T08:10:10.289Z,9.57
2022-12-25T08:15:12.003Z,8.88
2022-12-25T08:20:13.788Z,11.52
2022-12-25T08:25:15.982Z,22.70
2022-12-25T08:30:17.984Z,14.82
2022-12-25T08:35:23.232Z,21.98
2022-12-25T08:40:25.266Z,24.20
2022-12-25T08:45:34.507Z,15.07
2022-12-25T08:50:36.895Z,16.58
2022-12-25T08:55:38.964Z,22.75
2022-12-25T09:00:41.372Z,17.85
2022-12-25T09:05:43.116Z,7.07
2022-12-25T09:10:44.940Z,11.13
2022-12-25T09:15:46.942Z,6.72
2022-12-25T09:21:00.848Z,7.78
2022-12-25T09:26:05.787Z,7.82
2022-12-25T09:31:07.791Z,5.28
2022-12-25T09:36:10.446Z,6.20
2022-12-25T09:41:33.439Z,6.13
2022-12-25T09:46:45.235Z,7.38
2022-12-25T09:51:53.308Z,6.32
2022-12-25T09:56:55.211Z,4.97
2022-12-25T10:02:05.964Z,3.92
2022-12-25T10:07:27.176Z,5.00
2022-12-25T10:12:50.097Z,6.07
2022-12-25T10:18:07.218Z,7.63
2022-12-25T10:23:19.144Z,5.63
2022-12-25T10:28:33.746Z,3.33
2022-12-25T10:33:35.592Z,3.20
2022-12-25T10:38:37.466Z,3.90
2022-12-25T10:43:45.532Z,3.75
2022-12-25T10:48:57.306Z,4.28
2022-12-25T10:53:59.801Z,4.10
2022-12-25T10:59:10.766Z,3.67
2022-12-25T11:04:26.103Z,3.67
2022-12-25T11:09:28.140Z,4.72
2022-12-25T11:14:30.691Z,3.10
2022-12-25T11:19:33.358Z,2.13
2022-12-25T11:24:35.280Z,2.85
2022-12-25T11:29:37.307Z,3.75
2022-12-25T11:34:45.780Z,5.28
2022-12-25T11:39:47.964Z,2.83
2022-12-25T11:45:14.044Z,3.70
2022-12-25T11:50:34.454Z,2.63
2022-12-25T11:55:42.632Z,3.10
2022-12-25T12:00:47.653Z,1.70
2022-12-25T12:05:55.820Z,2.45
2022-12-25T12:11:16.590Z,2.60
2022-12-25T12:16:18.567Z,2.88
2022-12-25T12:21:29.704Z,1.80
2022-12-25T12:26:40.877Z,2.70
2022-12-25T12:31:50.747Z,4.03
2022-12-25T12:36:59.182Z,4.00
2022-12-25T12:42:01.364Z,1.23
2022-12-25T12:47:03.155Z,1.60
2022-12-25T12:52:23.735Z,3.28
2022-12-25T12:57:29.535Z,2.33
2022-12-25T13:02:56.954Z,1.80
2022-12-25T13:08:10.763Z,1.50
2022-12-25T13:13:26.760Z,1.13
2022-12-25T13:18:28.814Z,1.80
2022-12-25T13:23:37.040Z,1.23
2022-12-25T13:28:39.290Z,1.10
2022-12-25T13:33:47.444Z,1.25
2022-12-25T13:38:51.664Z,2.70
2022-12-25T13:43:58.390Z,5.00
2022-12-25T13:49:01.308Z,5.07
2022-12-25T13:54:07.058Z,6.28
2022-12-25T13:59:16.187Z,3.80
2022-12-25T14:04:21.922Z,4.78
2022-12-25T14:09:23.975Z,4.88
2022-12-25T14:14:26.352Z,6.30
2022-12-25T14:19:31.805Z,7.30
2022-12-25T14:24:34.892Z,4.10
2022-12-25T14:29:44.370Z,3.25
2022-12-25T14:34:49.479Z,2.40
2022-12-25T14:39:56.428Z,3.42
2022-12-25T14:45:06.815Z,5.28
2022-12-25T14:50:38.746Z,3.17
2022-12-25T14:55:40.548Z,2.00
2022-12-25T15:00:42.527Z,3.55
2022-12-25T15:05:44.342Z,3.67
2022-12-25T15:11:03.435Z,3.17
2022-12-25T15:16:25.640Z,3.42
2022-12-25T15:21:30.372Z,15.80
2022-12-25T15:26:32.489Z,5.90
2022-12-25T15:31:36.844Z,4.70
2022-12-25T15:36:39.930Z,7.47
2022-12-25T15:42:00.570Z,8.65
2022-12-25T15:47:02.503Z,9.07
2022-12-25T15:52:06.029Z,9.40
2022-12-25T15:57:18.143Z,8.00
2022-12-25T16:02:21.060Z,12.95
2022-12-25T16:07:25.024Z,13.43
2022-12-25T16:12:27.090Z,7.13
2022-12-25T16:17:28.896Z,6.10
2022-12-25T16:22:31.906Z,5.05
2022-12-25T16:27:33.685Z,13.93
2022-12-25T16:32:35.557Z,10.55
2022-12-25T16:37:37.950Z,10.10
2022-12-25T16:42:39.963Z,31.77
2022-12-25T16:47:41.875Z,18.77
2022-12-25T16:52:43.657Z,19.15
2022-12-25T16:57:48.410Z,13.63
2022-12-25T17:02:50.461Z,12.38
2022-12-25T17:07:52.652Z,10.25
2022-12-25T17:12:54.440Z,17.52
2022-12-25T17:17:57.023Z,21.55
2022-12-25T17:22:59.358Z,21.77
2022-12-25T17:28:01.151Z,17.05
2022-12-25T17:33:02.958Z,14.27
2022-12-25T17:38:04.994Z,16.30
2022-12-25T17:43:06.981Z,13.98
2022-12-25T17:48:08.881Z,13.63
2022-12-25T17:53:10.993Z,9.40
2022-12-25T17:58:12.780Z,8.05
2022-12-25T18:03:14.823Z,8.95
2022-12-25T18:08:16.742Z,12.80
2022-12-25T18:13:18.532Z,12.10
2022-12-25T18:18:20.717Z,17.83
2022-12-25T18:23:22.545Z,21.55
2022-12-25T18:28:24.485Z,30.70
2022-12-25T18:33:26.971Z,30.20
2022-12-25T18:38:28.889Z,16.27
2022-12-25T18:43:52.186Z,8.77
2022-12-25T18:48:53.882Z,8.88
2022-12-25T18:53:57.321Z,6.93
2022-12-25T18:59:00.526Z,6.25
2022-12-25T19:04:05.589Z,6.43
2022-12-25T19:09:10.947Z,6.28
2022-12-25T19:14:13.025Z,6.80
2022-12-25T19:19:15.401Z,3.80
2022-12-25T19:24:17.172Z,6.40
2022-12-25T19:29:19.071Z,13.65
2022-12-25T19:34:21.290Z,13.35
2022-12-25T19:39:23.108Z,11.77
2022-12-25T19:44:25.052Z,12.80
2022-12-25T19:49:27.242Z,8.75
2022-12-25T19:54:29.649Z,12.98
2022-12-25T19:59:31.538Z,10.93
2022-12-25T20:04:33.340Z,5.72
2022-12-25T20:09:35.418Z,13.15
2022-12-25T20:14:37.294Z,10.43
2022-12-25T20:19:39.129Z,9.30
2022-12-25T20:24:41.050Z,12.05
2022-12-25T20:29:42.945Z,9.98
2022-12-25T20:34:44.964Z,10.55
2022-12-25T20:39:46.864Z,11.80
2022-12-25T20:44:48.975Z,5.75
2022-12-25T20:49:50.908Z,11.02
2022-12-25T20:54:52.696Z,11.70
2022-12-25T20:59:55.013Z,19.50
2022-12-25T21:04:57.208Z,17.60
2022-12-25T21:10:00.042Z,15.52
2022-12-25T21:15:01.981Z,4.25
2022-12-25T21:20:04.437Z,3.95
2022-12-25T21:25:06.577Z,20.10
2022-12-25T21:30:14.056Z,12.20
2022-12-25T21:35:17.378Z,14.15
2022-12-25T21:40:19.503Z,10.90
2022-12-25T21:45:21.409Z,5.30
2022-12-25T21:50:41.891Z,8.07
2022-12-25T21:55:54.541Z,7.05
2022-12-25T22:00:56.624Z,4.40
2022-12-25T22:06:21.289Z,1.98
2022-12-25T22:11:45.272Z,10.45
2022-12-25T22:17:05.591Z,3.75
2022-12-25T22:22:07.406Z,4.55
2022-12-25T22:27:09.207Z,6.20
2022-12-25T22:32:12.258Z,6.78
2022-12-25T22:37:17.245Z,3.30
2022-12-25T22:42:19.713Z,3.63
2022-12-25T22:47:23.118Z,3.05
2022-12-25T22:52:25.070Z,2.85
2022-12-25T22:57:27.073Z,3.90
2022-12-25T23:02:29.163Z,4.68
2022-12-25T23:07:31.828Z,4.10
2022-12-25T23:12:52.581Z,4.70
2022-12-25T23:18:13.217Z,3.80
2022-12-25T23:23:35.083Z,3.47
2022-12-25T23:29:00.294Z,3.10
2022-12-25T23:34:03.055Z,2.88
2022-12-25T23:39:09.445Z,2.88
2022-12-25T23:44:13.221Z,2.58
2022-12-25T23:49:15.114Z,3.78
2022-12-25T23:54:20.118Z,3.65
2022-12-25T23:59:22.489Z,3.25
